Time;durP1;ratioP1;P1;durP2;ratioP2;P2;SDS_P1;SDS_P2;PMS_P1;PMS_P2;Temp;Humidity;BMP_temperature;BMP_pressure;BME280_temperature;BME280_humidity;BME280_pressure;Samples;Min_cycle;Max_cycle;Signal;HPM_P1;HPM_P2
2024/01/10 00:01:34;;;;;;;12.93;6.18;;;-2.40;99.90;;;;;;5035968;28;20205;-75
2024/01/10 00:04:00;;;;;;;8.87;5.63;;;-2.40;99.90;;;;;;5035941;28;20176;-79
2024/01/10 00:06:26;;;;;;;9.77;6.43;;;-2.40;99.90;;;;;;5054035;28;20612;-79
2024/01/10 00:08:52;;;;;;;9.37;5.97;;;-2.40;99.90;;;;;;5035016;28;20180;-78
2024/01/10 00:11:18;;;;;;;10.07;6.57;;;-2.40;99.90;;;;;;5036206;28;20209;-78
2024/01/10 00:13:44;;;;;;;9.20;5.85;;;-2.40;99.90;;;;;;5033484;28;20177;-78
2024/01/10 00:16:13;;;;;;;8.50;5.47;;;-2.50;99.90;;;;;;5035722;28;20192;-77
2024/01/10 00:18:40;;;;;;;8.63;5.70;;;-2.50;99.90;;;;;;5052917;28;20187;-77
2024/01/10 00:21:06;;;;;;;8.57;6.03;;;-2.50;99.90;;;;;;5035831;28;20330;-76
2024/01/10 00:23:32;;;;;;;8.20;5.88;;;-2.50;99.90;;;;;;5053459;28;20180;-76
2024/01/10 00:25:58;;;;;;;9.20;6.83;;;-2.50;99.90;;;;;;5053481;28;20207;-77
2024/01/10 00:28:24;;;;;;;9.27;5.97;;;-2.50;99.90;;;;;;5035027;28;20283;-77
2024/01/10 00:30:50;;;;;;;8.85;5.82;;;-2.50;99.90;;;;;;5053459;28;20185;-76
2024/01/10 00:33:16;;;;;;;8.37;5.00;;;-2.50;99.90;;;;;;5035627;28;20173;-77
2024/01/10 00:35:42;;;;;;;8.20;6.07;;;-2.60;99.90;;;;;;5053289;28;20173;-77
2024/01/10 00:38:08;;;;;;;11.23;6.20;;;-2.60;99.90;;;;;;5034640;28;20615;-77
2024/01/10 00:40:34;;;;;;;8.48;5.32;;;-2.60;99.90;;;;;;5053021;28;20303;-77
2024/01/10 00:42:59;;;;;;;8.33;6.00;;;-2.50;99.90;;;;;;5053000;28;20261;-77
2024/01/10 00:45:25;;;;;;;9.97;6.27;;;-2.50;99.90;;;;;;5035187;28;20177;-76
2024/01/10 00:47:51;;;;;;;6.60;5.50;;;-2.60;99.90;;;;;;5018709;28;20197;-77
2024/01/10 00:50:17;;;;;;;6.88;5.35;;;-2.60;99.90;;;;;;5052470;28;20185;-77
2024/01/10 00:52:44;;;;;;;11.27;6.07;;;-2.60;99.90;;;;;;5044021;28;20705;-77
2024/01/10 00:55:10;;;;;;;7.82;5.88;;;-2.60;99.90;;;;;;5018525;28;20637;-77
2024/01/10 00:57:38;;;;;;;11.50;6.00;;;-2.60;99.90;;;;;;5035150;28;20201;-77
2024/01/10 01:00:08;;;;;;;9.50;6.50;;;-2.60;99.90;;;;;;5052130;28;20508;-77
2024/01/10 01:02:33;;;;;;;8.18;5.55;;;-2.60;99.90;;;;;;5034863;28;20196;-77
2024/01/10 01:04:59;;;;;;;8.27;4.93;;;-2.60;99.90;;;;;;5034609;28;20243;-77
2024/01/10 01:07:26;;;;;;;11.40;6.00;;;-2.60;99.90;;;;;;5052480;28;20197;-77
2024/01/10 01:09:52;;;;;;;7.53;4.90;;;-2.60;99.90;;;;;;5034269;28;20204;-77
2024/01/10 01:12:17;;;;;;;7.33;5.23;;;-2.60;99.90;;;;;;5017142;28;20216;-76
2024/01/10 01:14:43;;;;;;;8.53;4.97;;;-2.60;99.90;;;;;;5028272;28;21161;-78
2024/01/10 01:17:09;;;;;;;10.50;6.20;;;-2.70;99.90;;;;;;5016315;28;20196;-77
2024/01/10 01:19:35;;;;;;;7.60;5.33;;;-2.70;99.90;;;;;;5034430;28;20199;-77
2024/01/10 01:22:00;;;;;;;8.43;5.27;;;-2.70;99.90;;;;;;5055737;28;20658;-77
2024/01/10 01:24:26;;;;;;;10.30;6.33;;;-2.70;99.90;;;;;;5014759;28;20671;-77
2024/01/10 01:26:52;;;;;;;6.57;5.23;;;-2.60;99.90;;;;;;5014181;28;20204;-77
2024/01/10 01:29:18;;;;;;;8.03;5.10;;;-2.70;99.90;;;;;;5032942;28;21581;-77
2024/01/10 01:31:44;;;;;;;7.45;5.25;;;-2.70;99.90;;;;;;5039165;28;20973;-77
2024/01/10 01:34:10;;;;;;;7.00;5.28;;;-2.70;99.90;;;;;;5026574;28;20259;-78
2024/01/10 01:36:36;;;;;;;9.07;5.57;;;-2.70;99.90;;;;;;5052224;28;20196;-78
2024/01/10 01:39:02;;;;;;;9.30;5.80;;;-2.70;99.90;;;;;;5033765;28;20211;-77
2024/01/10 01:41:27;;;;;;;5.40;4.78;;;-2.70;99.90;;;;;;5034068;28;20199;-77
2024/01/10 01:43:53;;;;;;;7.83;4.90;;;-2.70;99.90;;;;;;5038587;28;20188;-77
2024/01/10 01:46:19;;;;;;;7.87;5.30;;;-2.70;99.90;;;;;;5032935;28;20201;-77
2024/01/10 01:48:45;;;;;;;6.73;5.30;;;-2.70;99.90;;;;;;5014072;28;20182;-78
2024/01/10 01:51:14;;;;;;;8.15;5.50;;;-2.70;99.90;;;;;;5013888;28;20217;-77
2024/01/10 01:53:40;;;;;;;6.95;5.05;;;-2.70;99.90;;;;;;5014239;28;20192;-78
2024/01/10 01:56:08;;;;;;;8.65;5.95;;;-2.80;99.90;;;;;;5031923;28;20228;-78
2024/01/10 01:58:35;;;;;;;8.98;5.45;;;-2.80;99.90;;;;;;5031547;28;20235;-77
2024/01/10 02:01:07;;;;;;;6.22;4.38;;;-2.80;99.90;;;;;;5013885;28;20201;-78
2024/01/10 02:03:33;;;;;;;6.75;4.82;;;-2.80;99.90;;;;;;5031602;28;20173;-78
2024/01/10 02:06:03;;;;;;;7.28;5.10;;;-2.80;99.90;;;;;;5033029;28;20192;-77
2024/01/10 02:08:35;;;;;;;9.13;5.05;;;-2.80;99.90;;;;;;5043375;28;20626;-77
2024/01/10 02:11:02;;;;;;;5.93;4.40;;;-2.80;99.90;;;;;;5051433;28;20195;-77
2024/01/10 02:13:29;;;;;;;8.35;5.28;;;-2.80;99.90;;;;;;5017182;28;20181;-77
2024/01/10 02:15:56;;;;;;;10.07;5.00;;;-2.80;99.90;;;;;;5033528;28;20185;-77
2024/01/10 02:18:22;;;;;;;7.35;5.20;;;-2.80;99.90;;;;;;5032504;28;20244;-77
2024/01/10 02:20:47;;;;;;;6.67;4.87;;;-2.80;99.90;;;;;;5051290;28;20208;-77
2024/01/10 02:23:13;;;;;;;6.13;4.83;;;-2.80;99.90;;;;;;5032875;28;20180;-77
2024/01/10 02:25:40;;;;;;;6.97;5.10;;;-2.80;99.90;;;;;;5051324;28;20192;-77
2024/01/10 02:28:06;;;;;;;7.22;4.90;;;-2.80;99.90;;;;;;5032578;28;20655;-78
2024/01/10 02:30:33;;;;;;;5.88;4.45;;;-2.80;99.90;;;;;;5034219;28;20192;-77
2024/01/10 02:32:58;;;;;;;7.70;5.30;;;-2.80;99.90;;;;;;5035011;28;20557;-77
2024/01/10 02:35:24;;;;;;;7.20;4.90;;;-2.80;99.90;;;;;;5013494;28;20177;-77
2024/01/10 02:37:51;;;;;;;8.17;5.80;;;-2.80;99.90;;;;;;5013380;28;20624;-78
2024/01/10 02:40:17;;;;;;;8.10;6.15;;;-2.80;99.90;;;;;;5012905;28;20193;-77
2024/01/10 02:42:43;;;;;;;8.25;5.28;;;-2.90;99.90;;;;;;5015898;28;20173;-77
2024/01/10 02:45:09;;;;;;;10.20;5.80;;;-2.90;99.90;;;;;;5030932;28;20177;-77
2024/01/10 02:47:37;;;;;;;8.88;5.95;;;-2.90;99.90;;;;;;5012676;28;20205;-78
2024/01/10 02:50:03;;;;;;;6.88;4.88;;;-2.90;99.90;;;;;;4996185;28;20184;-78
2024/01/10 02:52:29;;;;;;;7.43;4.63;;;-2.90;99.90;;;;;;5030766;28;20260;-77
2024/01/10 02:54:55;;;;;;;8.60;4.80;;;-2.90;99.90;;;;;;5013055;28;20623;-78
2024/01/10 02:57:21;;;;;;;9.33;5.90;;;-2.90;99.90;;;;;;5013112;28;21283;-77
2024/01/10 02:59:46;;;;;;;8.57;6.17;;;-3.00;99.90;;;;;;5012693;28;20188;-77
2024/01/10 03:02:12;;;;;;;9.00;5.30;;;-3.00;99.90;;;;;;5030329;28;20564;-77
2024/01/10 03:04:38;;;;;;;6.80;4.53;;;-3.00;99.90;;;;;;5029595;28;20181;-78
2024/01/10 03:07:03;;;;;;;8.93;5.68;;;-3.00;99.90;;;;;;5066770;28;20296;-77
2024/01/10 03:09:29;;;;;;;8.00;5.00;;;-3.00;99.90;;;;;;5052040;28;20263;-77
2024/01/10 03:11:55;;;;;;;8.17;5.00;;;-3.00;99.90;;;;;;5062292;28;20180;-77
2024/01/10 03:14:21;;;;;;;9.03;6.53;;;-3.00;99.90;;;;;;5052328;28;20627;-77
2024/01/10 03:16:47;;;;;;;7.90;5.28;;;-3.00;99.90;;;;;;5052277;28;20196;-77
2024/01/10 03:19:13;;;;;;;9.20;5.93;;;-3.00;99.90;;;;;;5070005;28;20176;-77
2024/01/10 03:21:39;;;;;;;7.30;5.50;;;-3.00;99.90;;;;;;5038968;28;20222;-77
2024/01/10 03:24:05;;;;;;;9.27;5.68;;;-3.00;99.90;;;;;;5062125;28;20255;-78
2024/01/10 03:26:31;;;;;;;10.55;5.88;;;-3.00;99.90;;;;;;5035874;28;20192;-77
2024/01/10 03:28:57;;;;;;;8.63;6.30;;;-3.00;99.90;;;;;;5069771;28;20630;-77
2024/01/10 03:31:23;;;;;;;7.85;5.20;;;-3.00;99.90;;;;;;5070114;28;20310;-77
2024/01/10 03:33:49;;;;;;;8.50;5.75;;;-3.00;99.90;;;;;;5069906;28;20292;-77
2024/01/10 03:36:18;;;;;;;6.28;4.93;;;-3.10;99.90;;;;;;5055847;28;20290;-78
2024/01/10 03:38:45;;;;;;;7.88;4.95;;;-3.10;99.90;;;;;;5055854;28;20179;-78
2024/01/10 03:41:18;;;;;;;7.85;5.15;;;-3.10;99.90;;;;;;5039503;28;20200;-77
2024/01/10 03:43:44;;;;;;;8.20;4.78;;;-3.10;99.90;;;;;;5056127;28;20540;-77
2024/01/10 03:46:10;;;;;;;6.73;5.37;;;-3.10;99.90;;;;;;5054694;28;20198;-77
2024/01/10 03:48:36;;;;;;;7.93;5.93;;;-3.10;99.90;;;;;;5064807;28;20906;-77
2024/01/10 03:51:03;;;;;;;5.63;4.47;;;-3.10;99.90;;;;;;5038315;28;20265;-77
2024/01/10 03:53:29;;;;;;;6.75;5.50;;;-3.10;99.90;;;;;;5054362;28;20173;-77
2024/01/10 03:55:55;;;;;;;10.80;6.15;;;-3.10;99.90;;;;;;5054767;28;20194;-77
2024/01/10 03:58:21;;;;;;;7.10;5.43;;;-3.10;99.90;;;;;;5074583;28;20200;-80
2024/01/10 04:00:46;;;;;;;8.47;5.77;;;-3.10;99.90;;;;;;5043986;28;20194;-77
2024/01/10 04:03:12;;;;;;;7.93;4.80;;;-3.10;99.90;;;;;;5045434;28;20247;-76
2024/01/10 04:05:38;;;;;;;7.93;5.37;;;-3.10;99.90;;;;;;5072502;28;20180;-77
2024/01/10 04:08:04;;;;;;;9.80;5.70;;;-3.10;99.90;;;;;;5072196;28;20204;-77
2024/01/10 04:10:29;;;;;;;8.38;5.65;;;-3.10;99.90;;;;;;5029898;28;20180;-77
2024/01/10 04:12:55;;;;;;;8.17;5.47;;;-3.10;99.90;;;;;;5031105;28;20269;-77
2024/01/10 04:15:21;;;;;;;8.90;5.53;;;-3.10;99.90;;;;;;5052369;28;20211;-77
2024/01/10 04:17:47;;;;;;;7.93;5.67;;;-3.10;99.90;;;;;;5072277;28;20249;-76
2024/01/10 04:20:13;;;;;;;8.45;5.00;;;-3.10;99.90;;;;;;5053183;28;20705;-77
2024/01/10 04:22:39;;;;;;;7.77;5.80;;;-3.10;99.90;;;;;;5064290;28;20275;-77
2024/01/10 04:25:07;;;;;;;7.33;5.23;;;-3.10;99.90;;;;;;5054343;28;20169;-77
2024/01/10 04:27:33;;;;;;;7.85;5.35;;;-3.10;99.90;;;;;;5037507;28;21026;-77
2024/01/10 04:29:58;;;;;;;10.83;5.40;;;-3.10;99.90;;;;;;5071856;28;20188;-77
2024/01/10 04:32:24;;;;;;;7.73;5.27;;;-3.10;99.90;;;;;;5053362;28;20528;-77
2024/01/10 04:34:50;;;;;;;10.13;5.45;;;-3.10;99.90;;;;;;5050382;28;20191;-77
2024/01/10 04:37:16;;;;;;;8.93;5.77;;;-3.10;99.90;;;;;;5072122;28;20218;-77
2024/01/10 04:39:44;;;;;;;8.73;5.10;;;-3.10;99.90;;;;;;5053534;28;20604;-77
2024/01/10 04:42:14;;;;;;;5.93;5.15;;;-3.10;99.90;;;;;;5054169;28;20230;-76
2024/01/10 04:44:39;;;;;;;8.23;5.53;;;-3.10;99.90;;;;;;5045096;28;20515;-77
2024/01/10 04:47:05;;;;;;;7.33;5.33;;;-3.10;99.90;;;;;;4999322;28;1103768;-76
2024/01/10 04:49:31;;;;;;;7.82;5.40;;;-3.10;99.90;;;;;;5072380;28;20164;-76
2024/01/10 04:51:57;;;;;;;8.97;4.80;;;-3.10;99.90;;;;;;5055044;28;20185;-76
2024/01/10 04:54:23;;;;;;;10.37;5.20;;;-3.00;99.90;;;;;;5072460;28;20587;-76
2024/01/10 04:56:48;;;;;;;8.93;5.70;;;-3.00;99.90;;;;;;5054839;28;20622;-76
2024/01/10 04:59:14;;;;;;;7.60;4.90;;;-3.00;99.90;;;;;;5054139;28;20630;-76
2024/01/10 05:01:40;;;;;;;6.27;4.13;;;-3.00;99.90;;;;;;5072673;28;20208;-76
2024/01/10 05:04:06;;;;;;;5.97;4.83;;;-3.00;99.90;;;;;;5054413;28;20295;-76
2024/01/10 05:06:31;;;;;;;8.80;5.43;;;-3.00;99.90;;;;;;5069850;28;21215;-76
2024/01/10 05:08:58;;;;;;;8.70;5.30;;;-2.90;99.90;;;;;;5048790;28;20582;-75
2024/01/10 05:11:24;;;;;;;10.15;4.68;;;-2.90;99.90;;;;;;5054611;28;20598;-75
2024/01/10 05:13:51;;;;;;;10.77;5.10;;;-2.90;99.90;;;;;;5037624;28;20168;-75
2024/01/10 05:16:17;;;;;;;10.10;5.38;;;-2.90;99.90;;;;;;5037928;28;20180;-75
2024/01/10 05:18:42;;;;;;;8.50;5.38;;;-2.90;99.90;;;;;;5020531;28;20599;-76
2024/01/10 05:21:08;;;;;;;6.20;4.40;;;-2.90;99.90;;;;;;5046031;28;20318;-77
2024/01/10 05:23:34;;;;;;;7.80;5.30;;;-2.90;99.90;;;;;;5053940;28;20204;-79
2024/01/10 05:26:00;;;;;;;8.70;5.03;;;-2.90;99.90;;;;;;5054163;28;20589;-78
2024/01/10 05:28:26;;;;;;;6.63;4.68;;;-2.90;99.90;;;;;;5053486;28;21200;-77
2024/01/10 05:30:52;;;;;;;9.23;5.67;;;-2.90;99.90;;;;;;5048977;28;20176;-78
2024/01/10 05:33:17;;;;;;;8.00;5.33;;;-2.90;99.90;;;;;;5051356;28;20179;-77
2024/01/10 05:35:43;;;;;;;8.27;5.23;;;-2.90;99.90;;;;;;5071921;28;20661;-78
2024/01/10 05:38:09;;;;;;;7.10;4.73;;;-2.90;99.90;;;;;;5071471;28;20195;-77
2024/01/10 05:40:34;;;;;;;6.67;5.03;;;-2.90;99.90;;;;;;5051038;28;20232;-78
2024/01/10 05:43:00;;;;;;;8.97;5.50;;;-2.90;99.90;;;;;;5050259;28;20195;-79
2024/01/10 05:45:27;;;;;;;8.40;5.80;;;-2.90;99.90;;;;;;5053389;28;20579;-78
2024/01/10 05:47:54;;;;;;;10.00;5.30;;;-2.90;99.90;;;;;;5071910;28;20204;-79
2024/01/10 05:50:20;;;;;;;6.65;5.20;;;-2.80;99.90;;;;;;5054437;28;20173;-79
2024/01/10 05:52:46;;;;;;;7.03;5.70;;;-2.90;99.90;;;;;;5049342;28;20165;-79
2024/01/10 05:55:12;;;;;;;10.15;5.70;;;-2.80;99.90;;;;;;5051497;28;20251;-79
2024/01/10 05:57:38;;;;;;;6.47;4.93;;;-2.80;99.90;;;;;;5071887;28;20226;-73
2024/01/10 06:00:09;;;;;;;7.70;5.22;;;-2.80;99.90;;;;;;5039378;28;20575;-74
2024/01/10 06:02:39;;;;;;;8.18;5.25;;;-2.80;99.90;;;;;;5036880;28;20222;-74
2024/01/10 06:05:09;;;;;;;6.28;4.95;;;-2.70;99.90;;;;;;5031478;28;20542;-75
2024/01/10 06:07:37;;;;;;;10.05;5.45;;;-2.70;99.90;;;;;;5061728;28;20283;-75
2024/01/10 06:10:04;;;;;;;11.57;6.07;;;-2.70;99.90;;;;;;5049483;28;20177;-75
2024/01/10 06:12:30;;;;;;;7.50;4.75;;;-2.70;99.90;;;;;;5069485;28;20181;-75
2024/01/10 06:14:55;;;;;;;9.40;5.20;;;-2.60;99.90;;;;;;5066951;28;20674;-75
2024/01/10 06:17:21;;;;;;;11.00;6.60;;;-2.60;99.90;;;;;;5026114;28;20276;-75
2024/01/10 06:19:47;;;;;;;8.85;5.70;;;-2.60;99.90;;;;;;5071044;28;20174;-75
2024/01/10 06:22:13;;;;;;;7.93;6.20;;;-2.60;99.90;;;;;;5045544;28;20220;-75
2024/01/10 06:24:39;;;;;;;6.70;5.60;;;-2.60;99.90;;;;;;5052475;28;20203;-75
2024/01/10 06:27:05;;;;;;;12.37;7.33;;;-2.60;99.90;;;;;;5064374;28;20958;-74
2024/01/10 06:29:32;;;;;;;11.45;7.85;;;-2.50;99.90;;;;;;5052774;28;20225;-75
2024/01/10 06:31:57;;;;;;;14.55;8.40;;;-2.50;99.90;;;;;;5036590;28;20246;-75
2024/01/10 06:34:24;;;;;;;13.57;8.73;;;-2.50;99.90;;;;;;5070715;28;20246;-75
2024/01/10 06:36:50;;;;;;;14.82;8.55;;;-2.50;99.90;;;;;;5036322;28;20200;-75
2024/01/10 06:39:16;;;;;;;12.60;7.90;;;-2.50;99.90;;;;;;5052740;28;20548;-76
2024/01/10 06:41:43;;;;;;;16.05;11.13;;;-2.50;99.90;;;;;;5037204;28;20725;-76
2024/01/10 06:44:09;;;;;;;13.80;9.20;;;-2.50;99.90;;;;;;5029709;28;20196;-75
2024/01/10 06:46:36;;;;;;;15.27;9.90;;;-2.50;99.90;;;;;;5041538;28;20200;-74
2024/01/10 06:49:01;;;;;;;11.48;8.32;;;-2.50;99.90;;;;;;5051239;28;20263;-74
2024/01/10 06:51:27;;;;;;;12.50;8.13;;;-2.50;99.90;;;;;;5025485;28;20249;-74
2024/01/10 06:54:00;;;;;;;14.50;8.20;;;-2.50;99.90;;;;;;5010429;28;20191;-75
2024/01/10 06:56:49;;;;;;;10.85;7.10;;;-2.50;99.90;;;;;;5027858;28;20224;-75
2024/01/10 06:59:15;;;;;;;11.30;7.07;;;-2.50;99.90;;;;;;5017661;23;20314;-76
2024/01/10 07:01:40;;;;;;;14.13;8.77;;;-2.50;99.90;;;;;;5001442;28;20625;-76
2024/01/10 07:04:06;;;;;;;12.53;9.23;;;-2.50;99.90;;;;;;5022393;28;20204;-75
2024/01/10 07:06:32;;;;;;;10.90;8.33;;;-2.50;99.90;;;;;;4995991;28;20771;-75
2024/01/10 07:08:58;;;;;;;13.73;9.40;;;-2.50;99.90;;;;;;5010541;28;20194;-75
2024/01/10 07:11:28;;;;;;;11.48;7.78;;;-2.50;99.90;;;;;;5012133;28;20189;-75
2024/01/10 07:13:53;;;;;;;11.60;8.23;;;-2.50;99.90;;;;;;5000263;28;20178;-74
2024/01/10 07:16:19;;;;;;;11.90;8.50;;;-2.50;99.90;;;;;;4994017;28;20181;-75
2024/01/10 07:18:46;;;;;;;11.20;8.37;;;-2.50;99.90;;;;;;5012775;28;21173;-75
2024/01/10 07:21:12;;;;;;;12.80;8.20;;;-2.50;99.90;;;;;;4997614;28;20186;-74
2024/01/10 07:23:42;;;;;;;14.32;8.35;;;-2.50;99.90;;;;;;5011773;28;20603;-74
2024/01/10 07:26:08;;;;;;;14.02;8.13;;;-2.50;99.90;;;;;;5012536;28;20174;-74
2024/01/10 07:28:34;;;;;;;15.33;7.93;;;-2.50;99.90;;;;;;5013454;28;20209;-73
2024/01/10 07:31:02;;;;;;;10.73;7.90;;;-2.40;99.90;;;;;;5022861;28;20734;-74
2024/01/10 07:33:30;;;;;;;13.95;7.90;;;-2.40;99.90;;;;;;5015132;28;20175;-74
2024/01/10 07:35:57;;;;;;;12.80;8.73;;;-2.40;99.90;;;;;;5015543;28;20170;-74
2024/01/10 07:38:23;;;;;;;13.00;9.02;;;-2.40;99.90;;;;;;5025309;28;20323;-74
2024/01/10 07:40:49;;;;;;;12.63;8.53;;;-2.40;99.90;;;;;;5000349;28;20226;-74
2024/01/10 07:43:15;;;;;;;15.37;7.77;;;-2.40;99.90;;;;;;5020815;28;20196;-75
2024/01/10 07:45:40;;;;;;;12.20;8.73;;;-2.30;99.90;;;;;;5029937;28;20193;-75
2024/01/10 07:48:06;;;;;;;12.50;8.67;;;-2.30;99.90;;;;;;5005539;28;20731;-75
2024/01/10 07:50:32;;;;;;;11.73;7.82;;;-2.30;99.90;;;;;;5016561;28;20682;-75
2024/01/10 07:52:58;;;;;;;13.40;8.97;;;-2.30;99.90;;;;;;5015430;28;20703;-74
2024/01/10 07:55:24;;;;;;;10.43;7.73;;;-2.30;99.90;;;;;;5022981;28;20723;-73
2024/01/10 07:57:49;;;;;;;10.97;8.63;;;-2.30;99.90;;;;;;5012016;28;20236;-74
2024/01/10 08:00:16;;;;;;;13.03;8.10;;;-2.30;99.90;;;;;;5036910;28;20551;-74
2024/01/10 08:02:41;;;;;;;13.93;9.15;;;-2.30;99.90;;;;;;4996420;28;20719;-76
2024/01/10 08:05:10;;;;;;;13.27;8.33;;;-2.40;99.90;;;;;;5006906;28;20261;-74
2024/01/10 08:07:37;;;;;;;13.63;7.95;;;-2.30;99.90;;;;;;5005820;28;20205;-74
2024/01/10 08:10:13;;;;;;;13.40;8.90;;;-2.30;99.90;;;;;;5042061;28;20178;-74
2024/01/10 08:12:39;;;;;;;14.73;8.80;;;-2.30;99.90;;;;;;5020346;28;20206;-74
2024/01/10 08:15:06;;;;;;;13.00;8.00;;;-2.20;99.90;;;;;;5022530;28;20174;-74
2024/01/10 08:17:32;;;;;;;14.50;7.65;;;-2.20;99.90;;;;;;5029487;28;20222;-74
2024/01/10 08:20:00;;;;;;;13.55;6.75;;;-2.10;99.90;;;;;;5029223;28;20170;-74
2024/01/10 08:22:26;;;;;;;13.45;8.07;;;-2.10;99.90;;;;;;5012802;28;20197;-73
2024/01/10 08:24:52;;;;;;;14.77;7.70;;;-2.10;99.90;;;;;;5018289;28;20214;-74
2024/01/10 08:27:18;;;;;;;11.80;7.20;;;-2.00;99.90;;;;;;5028588;28;20178;-73
2024/01/10 08:29:44;;;;;;;11.27;6.77;;;-2.00;99.90;;;;;;5015398;28;20595;-74
2024/01/10 08:32:11;;;;;;;11.98;7.63;;;-1.90;99.90;;;;;;5021071;28;20686;-73
2024/01/10 08:34:37;;;;;;;12.52;7.55;;;-1.90;99.90;;;;;;5015399;28;20166;-74
2024/01/10 08:37:03;;;;;;;11.77;7.47;;;-1.90;99.90;;;;;;5026414;28;20637;-75
2024/01/10 08:39:30;;;;;;;12.32;7.50;;;-1.80;99.90;;;;;;5029671;28;20652;-74
2024/01/10 08:41:57;;;;;;;11.48;7.50;;;-1.80;99.90;;;;;;4998923;28;20639;-75
2024/01/10 08:44:22;;;;;;;11.18;7.68;;;-1.80;99.90;;;;;;5033071;28;20527;-75
2024/01/10 08:46:50;;;;;;;11.33;7.87;;;-1.70;99.90;;;;;;5006429;28;20170;-76
2024/01/10 08:49:17;;;;;;;11.70;8.50;;;-1.70;99.90;;;;;;5011348;28;20197;-76
2024/01/10 08:51:43;;;;;;;11.88;7.38;;;-1.60;99.90;;;;;;5006325;28;20727;-76
2024/01/10 08:54:09;;;;;;;11.88;8.27;;;-1.60;99.90;;;;;;5027292;28;20202;-76
2024/01/10 08:56:35;;;;;;;13.03;8.33;;;-1.50;99.90;;;;;;5014023;28;20264;-75
2024/01/10 08:59:01;;;;;;;11.77;8.07;;;-1.50;99.90;;;;;;5014446;28;20793;-74
2024/01/10 09:01:27;;;;;;;13.30;8.80;;;-1.40;99.90;;;;;;5032784;28;20614;-75
2024/01/10 09:03:52;;;;;;;10.60;7.30;;;-1.40;99.90;;;;;;5028583;28;20206;-75
2024/01/10 09:06:18;;;;;;;12.07;8.07;;;-1.30;99.90;;;;;;5039509;28;20173;-75
2024/01/10 09:08:44;;;;;;;14.33;9.53;;;-1.30;99.90;;;;;;5002158;28;20671;-76
2024/01/10 09:11:09;;;;;;;11.90;7.90;;;-1.30;99.90;;;;;;5006647;28;20235;-75
2024/01/10 09:13:37;;;;;;;11.60;8.30;;;-1.20;99.90;;;;;;5045705;28;20181;-75
2024/01/10 09:16:04;;;;;;;11.57;7.75;;;-1.20;99.90;;;;;;5014711;28;20174;-75
2024/01/10 09:18:29;;;;;;;12.07;8.30;;;-1.10;99.90;;;;;;4997557;28;20536;-75
2024/01/10 09:20:55;;;;;;;11.20;7.47;;;-1.10;99.90;;;;;;5032463;28;20174;-74
2024/01/10 09:23:21;;;;;;;11.13;7.27;;;-1.10;99.90;;;;;;5032994;28;20236;-75
2024/01/10 09:25:47;;;;;;;10.90;7.87;;;-1.10;99.90;;;;;;5011896;28;20686;-75
2024/01/10 09:28:12;;;;;;;9.75;7.22;;;-1.00;99.90;;;;;;5005213;28;20206;-74
2024/01/10 09:30:38;;;;;;;11.93;7.13;;;-1.00;99.90;;;;;;5014420;28;20185;-75
2024/01/10 09:33:04;;;;;;;11.05;7.57;;;-0.90;99.90;;;;;;5018836;28;20209;-75
2024/01/10 09:35:30;;;;;;;13.97;6.93;;;-0.90;99.90;;;;;;4997798;28;20201;-75
2024/01/10 09:37:56;;;;;;;9.03;6.90;;;-0.90;99.90;;;;;;4985838;28;20194;-75
2024/01/10 09:40:22;;;;;;;11.00;7.57;;;-0.80;99.90;;;;;;5021988;28;20619;-75
2024/01/10 09:42:51;;;;;;;12.27;7.85;;;-0.80;99.90;;;;;;5031644;28;20189;-74
2024/01/10 09:45:18;;;;;;;12.65;7.07;;;-0.70;99.90;;;;;;5043385;28;20166;-74
2024/01/10 09:47:48;;;;;;;11.73;7.22;;;-0.70;99.90;;;;;;4999213;28;20294;-75
2024/01/10 09:50:14;;;;;;;11.45;7.05;;;-0.70;99.90;;;;;;5033329;28;20174;-75
2024/01/10 09:53:13;;;;;;;11.15;7.20;;;-0.80;99.90;;;;;;4999949;28;20676;-75
2024/01/10 09:55:38;;;;;;;11.65;7.35;;;-0.80;99.90;;;;;;4989585;28;20187;-75
2024/01/10 09:58:09;;;;;;;13.20;6.50;;;-0.80;99.90;;;;;;5015152;28;20208;-75
2024/01/10 10:00:36;;;;;;;11.60;7.55;;;-0.90;99.90;;;;;;4999252;28;20585;-75
2024/01/10 10:03:04;;;;;;;13.10;7.70;;;-0.90;99.90;;;;;;5023407;28;20196;-76
2024/01/10 10:05:31;;;;;;;10.73;7.53;;;-0.90;99.90;;;;;;5031327;28;20208;-76
2024/01/10 10:07:58;;;;;;;13.02;8.20;;;-1.00;99.90;;;;;;5005540;28;20198;-76
2024/01/10 10:10:24;;;;;;;13.35;8.65;;;-1.00;99.90;;;;;;5013086;28;20174;-75
2024/01/10 10:12:52;;;;;;;13.90;8.10;;;-1.00;99.90;;;;;;5013599;28;20186;-75
2024/01/10 10:15:21;;;;;;;15.05;7.78;;;-0.90;99.90;;;;;;5033624;28;20586;-75
2024/01/10 10:17:48;;;;;;;11.35;7.60;;;-0.90;99.90;;;;;;5028642;28;20204;-75
2024/01/10 10:20:24;;;;;;;15.70;8.00;;;-0.80;99.90;;;;;;5009824;28;20166;-75
2024/01/10 10:23:06;;;;;;;12.20;7.75;;;-0.80;99.90;;;;;;5011487;28;20248;-76
2024/01/10 10:25:45;;;;;;;11.32;8.63;;;-0.80;99.90;;;;;;5024532;28;20571;-75
2024/01/10 10:28:11;;;;;;;10.55;7.88;;;-0.70;99.90;;;;;;5013042;28;20327;-75
2024/01/10 10:30:37;;;;;;;15.40;9.00;;;-0.60;99.90;;;;;;5013170;28;20629;-75
2024/01/10 10:33:03;;;;;;;13.20;7.80;;;-0.60;99.90;;;;;;5029792;28;20177;-75
2024/01/10 10:35:29;;;;;;;12.07;7.57;;;-0.50;99.90;;;;;;4996691;28;20638;-75
2024/01/10 10:37:54;;;;;;;17.80;8.17;;;-0.40;99.90;;;;;;5031730;28;20663;-75
2024/01/10 10:40:21;;;;;;;16.57;9.30;;;-0.40;99.90;;;;;;5028894;28;20173;-75
2024/01/10 10:42:49;;;;;;;14.52;9.55;;;-0.30;99.90;;;;;;5012970;28;20327;-74
2024/01/10 10:45:19;;;;;;;12.68;9.27;;;-0.20;99.90;;;;;;5012457;28;20208;-74
2024/01/10 10:47:49;;;;;;;16.48;8.57;;;-0.20;99.90;;;;;;4978600;28;20289;-75
2024/01/10 10:50:22;;;;;;;10.60;8.07;;;-0.20;99.90;;;;;;5008955;28;20186;-74
2024/01/10 10:52:50;;;;;;;12.02;8.10;;;-0.10;99.90;;;;;;5010893;28;20178;-74
2024/01/10 10:55:17;;;;;;;12.80;7.97;;;-0.10;99.90;;;;;;5010845;28;20174;-73
2024/01/10 10:57:47;;;;;;;15.07;10.40;;;0.00;99.90;;;;;;4992909;28;20202;-74
2024/01/10 11:00:17;;;;;;;12.48;8.65;;;0.00;99.90;;;;;;5027650;28;20253;-74
2024/01/10 11:02:44;;;;;;;18.10;8.95;;;0.10;99.90;;;;;;5012692;28;20644;-74
2024/01/10 11:05:11;;;;;;;16.55;10.15;;;0.10;99.90;;;;;;4996409;28;20178;-74
2024/01/10 11:07:38;;;;;;;13.32;8.15;;;0.20;99.90;;;;;;5013335;28;20221;-74
2024/01/10 11:10:10;;;;;;;15.23;9.27;;;0.20;99.90;;;;;;5015089;28;20186;-74
2024/01/10 11:12:59;;;;;;;16.65;10.75;;;0.30;99.90;;;;;;5009306;28;20202;-74
2024/01/10 11:15:49;;;;;;;16.60;10.00;;;0.30;99.90;;;;;;5012126;28;20174;-74
2024/01/10 11:18:49;;;;;;;13.88;8.85;;;0.40;99.90;;;;;;5022822;28;20332;-74
2024/01/10 11:21:49;;;;;;;14.50;9.05;;;0.50;99.90;;;;;;5012545;28;20243;-74
2024/01/10 11:24:15;;;;;;;13.18;8.30;;;0.70;99.90;;;;;;5037266;28;20181;-73
2024/01/10 11:26:41;;;;;;;13.23;7.93;;;0.90;99.90;;;;;;4997864;28;20204;-73
2024/01/10 11:29:07;;;;;;;16.90;9.93;;;1.00;99.90;;;;;;5012401;28;20229;-74
2024/01/10 11:31:33;;;;;;;15.30;9.20;;;1.20;99.90;;;;;;5003972;28;20236;-74
2024/01/10 11:34:03;;;;;;;13.27;10.38;;;1.20;99.90;;;;;;5032166;28;20178;-75
2024/01/10 11:36:29;;;;;;;15.35;10.05;;;1.30;99.90;;;;;;5029270;28;20178;-74
2024/01/10 11:39:01;;;;;;;17.83;9.20;;;1.40;99.90;;;;;;4989147;28;20257;-74
2024/01/10 11:41:35;;;;;;;16.40;10.10;;;1.40;99.90;;;;;;5017969;28;20623;-75
2024/01/10 11:44:12;;;;;;;17.42;9.98;;;1.50;99.90;;;;;;5034323;28;20593;-74
2024/01/10 11:46:43;;;;;;;14.65;9.43;;;1.60;99.90;;;;;;5025427;28;20185;-75
2024/01/10 11:49:11;;;;;;;13.35;8.60;;;1.60;99.90;;;;;;4997436;28;20198;-74
2024/01/10 11:51:37;;;;;;;13.27;8.27;;;1.80;99.90;;;;;;5031008;28;20193;-75
2024/01/10 11:54:04;;;;;;;14.15;9.32;;;1.90;99.90;;;;;;4996867;28;20178;-74
2024/01/10 11:56:39;;;;;;;13.77;9.55;;;1.90;99.90;;;;;;5011380;28;20185;-74
2024/01/10 11:59:15;;;;;;;15.63;9.65;;;1.90;99.90;;;;;;5025203;28;20295;-74
2024/01/10 12:01:42;;;;;;;13.15;8.45;;;2.00;99.90;;;;;;5034007;28;20327;-74
2024/01/10 12:04:11;;;;;;;15.98;9.43;;;2.00;99.90;;;;;;4999480;28;20712;-74
2024/01/10 12:06:37;;;;;;;15.63;9.30;;;2.10;99.90;;;;;;5015878;28;20182;-74
2024/01/10 12:09:09;;;;;;;16.98;8.15;;;2.20;99.90;;;;;;5015316;28;20351;-74
2024/01/10 12:11:35;;;;;;;16.55;9.82;;;2.20;99.90;;;;;;5033530;28;20189;-74
2024/01/10 12:14:02;;;;;;;15.25;10.38;;;2.30;99.90;;;;;;5015447;28;20177;-75
2024/01/10 12:16:29;;;;;;;19.52;10.45;;;2.40;99.90;;;;;;5033622;28;20162;-74
2024/01/10 12:18:55;;;;;;;17.85;11.20;;;2.40;99.90;;;;;;5014993;28;20212;-75
2024/01/10 12:21:21;;;;;;;17.10;11.43;;;2.50;99.90;;;;;;5032220;28;20177;-74
2024/01/10 12:23:48;;;;;;;20.63;9.73;;;2.60;99.90;;;;;;4997973;28;20632;-75
2024/01/10 12:26:14;;;;;;;18.88;11.20;;;2.60;99.90;;;;;;5026838;28;20599;-75
2024/01/10 12:28:42;;;;;;;19.50;10.83;;;2.60;99.90;;;;;;5023993;28;20290;-74
2024/01/10 12:31:08;;;;;;;18.35;9.40;;;2.60;99.90;;;;;;5035445;28;20621;-75
2024/01/10 12:33:37;;;;;;;14.10;9.10;;;2.60;99.90;;;;;;5033163;28;20177;-75
2024/01/10 12:36:06;;;;;;;18.20;10.50;;;2.60;99.90;;;;;;5015350;28;20206;-75
2024/01/10 12:38:33;;;;;;;16.98;9.32;;;2.60;99.90;;;;;;5032691;28;20193;-76
2024/01/10 12:41:00;;;;;;;14.65;9.82;;;2.70;99.90;;;;;;5011538;28;20201;-75
2024/01/10 12:43:27;;;;;;;14.40;9.63;;;2.70;99.90;;;;;;5008740;28;20189;-75